createdAt,value
2018-08-20T17:52:37.160Z,101311.27
2018-08-20T17:55:06.014Z,101317.98
2018-08-20T17:57:34.561Z,101317.12
2018-08-20T18:00:16.545Z,101319.81
2018-08-20T18:02:44.918Z,101324.36
2018-08-20T18:05:13.719Z,101323.97
2018-08-20T18:07:42.116Z,101329.86
2018-08-20T18:10:10.567Z,101326.13
2018-08-20T18:12:39.827Z,101326.36
2018-08-20T18:15:08.345Z,101325.22
2018-08-20T18:17:36.669Z,101330.81
2018-08-20T18:20:05.393Z,101324.53
2018-08-20T18:22:34.152Z,101334.45
2018-08-20T18:25:02.540Z,101331.08
2018-08-20T18:27:36.076Z,101333.43
2018-08-20T18:30:04.795Z,101334.70
2018-08-20T18:32:33.119Z,101339.55
2018-08-20T18:35:01.435Z,101340.79
2018-08-20T18:37:31.157Z,101346.88
2018-08-20T18:40:00.195Z,101353.81
2018-08-20T18:42:49.194Z,101352.89
2018-08-20T18:45:17.651Z,101361.59
2018-08-20T18:47:46.116Z,101362.21
2018-08-20T18:50:14.555Z,101357.78
2018-08-20T18:52:42.921Z,101355.84
2018-08-20T18:55:11.361Z,101354.89
2018-08-20T18:57:39.760Z,101364.48
2018-08-20T19:00:12.191Z,101364.70
2018-08-20T19:02:53.881Z,101369.97
2018-08-20T19:05:22.533Z,101366.58
2018-08-20T19:07:51.077Z,101375.34
2018-08-20T19:10:26.232Z,101381.42
2018-08-20T19:12:54.601Z,101382.17
2018-08-20T19:15:56.164Z,101380.20
2018-08-20T19:18:29.241Z,101385.16
2018-08-20T19:20:57.656Z,101384.23
2018-08-20T19:23:26.037Z,101385.50
2018-08-20T19:25:54.513Z,101387.86
2018-08-20T19:28:23.893Z,101384.35
2018-08-20T19:30:53.655Z,101390.95
2018-08-20T19:33:27.543Z,101393.33
2018-08-20T19:35:56.660Z,101394.16
2018-08-20T19:38:25.092Z,101388.48
2018-08-20T19:41:03.856Z,101392.21
2018-08-20T19:43:37.678Z,101384.06
2018-08-20T19:46:06.047Z,101394.90
2018-08-20T19:48:34.500Z,101390.77
2018-08-20T19:51:05.547Z,101396.02
2018-08-20T19:53:33.925Z,101396.73
2018-08-20T19:56:02.283Z,101393.16
2018-08-20T19:58:34.788Z,101392.93
2018-08-20T20:01:10.068Z,101397.36
2018-08-20T20:03:43.430Z,101393.64
2018-08-20T20:06:11.889Z,101397.06
2018-08-20T20:08:40.362Z,101399.11
2018-08-20T20:11:16.190Z,101393.63
2018-08-20T20:13:44.577Z,101401.78
2018-08-20T20:16:12.931Z,101396.13
2018-08-20T20:18:41.304Z,101400.45
2018-08-20T20:21:09.688Z,101400.85
2018-08-20T20:23:38.146Z,101400.77
2018-08-20T20:26:06.749Z,101406.84
2018-08-20T20:28:35.136Z,101408.06
2018-08-20T20:31:03.516Z,101406.73
2018-08-20T20:33:32.080Z,101408.77
2018-08-20T20:36:00.423Z,101406.91
2018-08-20T20:38:28.848Z,101413.95
2018-08-20T20:40:57.075Z,101409.11
2018-08-20T20:43:33.342Z,101403.41
2018-08-20T20:46:01.823Z,101411.12
2018-08-20T20:48:30.212Z,101408.84
2018-08-20T20:50:58.579Z,101416.58
2018-08-20T20:53:26.971Z,101410.59
2018-08-20T20:55:55.438Z,101415.34
2018-08-20T20:58:30.888Z,101412.25
2018-08-20T21:01:00.436Z,101408.94
2018-08-20T21:03:46.169Z,101419.34
2018-08-20T21:06:14.542Z,101419.75
2018-08-20T21:08:47.324Z,101418.62
2018-08-20T21:11:16.632Z,101421.49
2018-08-20T21:13:45.440Z,101423.23
2018-08-20T21:16:17.492Z,101426.31
2018-08-20T21:18:51.087Z,101424.67
2018-08-20T21:21:19.969Z,101428.05
2018-08-20T21:23:48.413Z,101426.63
2018-08-20T21:26:16.966Z,101432.17
2018-08-20T21:28:51.713Z,101431.66
2018-08-20T21:31:21.287Z,101431.05
2018-08-20T21:33:57.824Z,101433.82
2018-08-20T21:36:26.136Z,101436.47
2018-08-20T21:38:54.530Z,101433.04
2018-08-20T21:41:25.757Z,101436.51
2018-08-20T21:43:54.538Z,101432.98
2018-08-20T21:46:23.140Z,101443.35
2018-08-20T21:48:51.457Z,101440.64
2018-08-20T21:51:25.145Z,101440.58
2018-08-20T21:53:53.574Z,101441.05
2018-08-20T21:56:21.934Z,101436.48
2018-08-20T21:58:50.389Z,101440.27
2018-08-20T22:01:18.975Z,101442.70
2018-08-20T22:03:47.318Z,101444.42
2018-08-20T22:06:15.686Z,101449.55
2018-08-20T22:08:44.070Z,101448.16
2018-08-20T22:11:12.721Z,101444.92
2018-08-20T22:13:41.231Z,101453.52
2018-08-20T22:16:17.609Z,101449.27
2018-08-20T22:18:47.401Z,101457.23
2018-08-20T22:21:17.005Z,101455.54
2018-08-20T22:23:46.114Z,101456.09
2018-08-20T22:26:17.912Z,101454.22
2018-08-20T22:28:48.804Z,101459.95
2018-08-20T22:31:17.455Z,101458.44
2018-08-20T22:33:58.509Z,101451.31
2018-08-20T22:36:27.724Z,101462.19
2018-08-20T22:39:00.231Z,101459.06
2018-08-20T22:41:29.821Z,101457.19
2018-08-20T22:43:58.328Z,101457.11
2018-08-20T22:46:27.090Z,101453.80
2018-08-20T22:48:59.227Z,101453.86
2018-08-20T22:51:28.778Z,101457.94
2018-08-20T22:53:59.955Z,101461.47
2018-08-20T22:56:34.840Z,101462.86
2018-08-20T22:59:10.085Z,101458.10
2018-08-20T23:01:38.495Z,101456.83
2018-08-20T23:04:07.177Z,101451.86
2018-08-20T23:06:35.607Z,101461.07
2018-08-20T23:09:28.487Z,101467.61
2018-08-20T23:11:56.943Z,101458.32
2018-08-20T23:14:25.581Z,101465.37
2018-08-20T23:16:53.944Z,101462.19
2018-08-20T23:19:22.288Z,101463.72
2018-08-20T23:21:53.534Z,101465.57
2018-08-20T23:24:21.950Z,101461.73
2018-08-20T23:26:50.845Z,101473.13
2018-08-20T23:29:19.198Z,101461.48
2018-08-20T23:31:47.550Z,101462.16
2018-08-20T23:34:16.267Z,101468.70
2018-08-20T23:36:44.667Z,101469.78
2018-08-20T23:39:15.293Z,101468.98
2018-08-20T23:41:43.813Z,101466.37
2018-08-20T23:44:15.788Z,101479.05
2018-08-20T23:46:46.992Z,101468.41
2018-08-20T23:49:15.366Z,101469.11
2018-08-20T23:51:43.839Z,101471.13
2018-08-20T23:54:12.738Z,101474.30
2018-08-20T23:56:41.157Z,101471.84
2018-08-20T23:59:09.721Z,101475.38
